sensor_id;sensor_type;location;lat;lon;timestamp;pressure;altitude;pressure_sealevel;temperature;humidity
21276;BME280;36472;52.170;20.884;2023-06-26T00:00:20;100409.88;;;17.90;75.72
21276;BME280;36472;52.170;20.884;2023-06-26T00:03:14;100413.25;;;17.92;75.17
21276;BME280;36472;52.170;20.884;2023-06-26T00:05:43;100413.53;;;17.89;75.58
21276;BME280;36472;52.170;20.884;2023-06-26T00:08:12;100422.22;;;17.81;75.58
21276;BME280;36472;52.170;20.884;2023-06-26T00:10:41;100418.22;;;17.67;75.79
21276;BME280;36472;52.170;20.884;2023-06-26T00:13:10;100416.38;;;17.68;76.26
21276;BME280;36472;52.170;20.884;2023-06-26T00:15:40;100423.66;;;17.66;76.80
21276;BME280;36472;52.170;20.884;2023-06-26T00:18:08;100416.09;;;17.71;76.38
21276;BME280;36472;52.170;20.884;2023-06-26T00:20:39;100415.13;;;17.72;75.98
21276;BME280;36472;52.170;20.884;2023-06-26T00:23:08;100419.75;;;17.70;75.55
21276;BME280;36472;52.170;20.884;2023-06-26T00:25:37;100421.69;;;17.68;75.47
21276;BME280;36472;52.170;20.884;2023-06-26T00:28:06;100422.84;;;17.65;75.89
21276;BME280;36472;52.170;20.884;2023-06-26T00:30:38;100422.56;;;17.68;75.81
21276;BME280;36472;52.170;20.884;2023-06-26T00:33:07;100412.50;;;17.62;76.04
21276;BME280;36472;52.170;20.884;2023-06-26T00:35:36;100415.69;;;17.66;75.44
21276;BME280;36472;52.170;20.884;2023-06-26T00:38:07;100409.84;;;17.62;75.44
21276;BME280;36472;52.170;20.884;2023-06-26T00:40:38;100421.63;;;17.60;75.52
21276;BME280;36472;52.170;20.884;2023-06-26T00:43:07;100413.25;;;17.54;75.48
21276;BME280;36472;52.170;20.884;2023-06-26T00:45:36;100409.19;;;17.50;75.23
21276;BME280;36472;52.170;20.884;2023-06-26T00:48:11;100407.66;;;17.48;76.06
21276;BME280;36472;52.170;20.884;2023-06-26T00:50:41;100406.41;;;17.42;76.10
21276;BME280;36472;52.170;20.884;2023-06-26T00:53:12;100411.16;;;17.48;75.99
21276;BME280;36472;52.170;20.884;2023-06-26T00:55:42;100400.25;;;17.42;76.18
21276;BME280;36472;52.170;20.884;2023-06-26T00:58:11;100406.56;;;17.41;76.37
21276;BME280;36472;52.170;20.884;2023-06-26T01:00:40;100408.50;;;17.38;75.81
21276;BME280;36472;52.170;20.884;2023-06-26T01:03:13;100405.16;;;17.36;75.71
21276;BME280;36472;52.170;20.884;2023-06-26T01:05:42;100396.66;;;17.33;75.60
21276;BME280;36472;52.170;20.884;2023-06-26T01:08:14;100389.97;;;17.29;75.80
21276;BME280;36472;52.170;20.884;2023-06-26T01:10:45;100393.31;;;17.21;75.98
21276;BME280;36472;52.170;20.884;2023-06-26T01:13:16;100396.81;;;17.22;76.02
21276;BME280;36472;52.170;20.884;2023-06-26T01:15:46;100389.56;;;17.24;76.29
21276;BME280;36472;52.170;20.884;2023-06-26T01:18:16;100393.19;;;17.23;76.42
21276;BME280;36472;52.170;20.884;2023-06-26T01:20:45;100390.81;;;17.19;76.12
21276;BME280;36472;52.170;20.884;2023-06-26T01:23:22;100379.78;;;17.14;76.82
21276;BME280;36472;52.170;20.884;2023-06-26T01:26:16;100392.66;;;17.09;77.00
21276;BME280;36472;52.170;20.884;2023-06-26T01:28:46;100390.69;;;17.11;77.14
21276;BME280;36472;52.170;20.884;2023-06-26T01:31:16;100386.66;;;17.07;77.19
21276;BME280;36472;52.170;20.884;2023-06-26T01:33:47;100384.56;;;17.01;77.55
21276;BME280;36472;52.170;20.884;2023-06-26T01:36:17;100388.06;;;17.01;77.63
21276;BME280;36472;52.170;20.884;2023-06-26T01:38:49;100376.59;;;17.01;77.69
21276;BME280;36472;52.170;20.884;2023-06-26T01:41:20;100379.56;;;16.98;77.94
21276;BME280;36472;52.170;20.884;2023-06-26T01:44:18;100381.75;;;17.02;77.23
21276;BME280;36472;52.170;20.884;2023-06-26T01:46:59;100380.25;;;17.00;77.75
21276;BME280;36472;52.170;20.884;2023-06-26T01:49:40;100375.63;;;16.92;77.34
21276;BME280;36472;52.170;20.884;2023-06-26T01:52:20;100376.34;;;16.85;77.59
21276;BME280;36472;52.170;20.884;2023-06-26T01:54:58;100375.91;;;16.70;78.39
21276;BME280;36472;52.170;20.884;2023-06-26T01:57:34;100368.09;;;16.68;78.65
21276;BME280;36472;52.170;20.884;2023-06-26T02:00:05;100379.28;;;16.62;78.62
21276;BME280;36472;52.170;20.884;2023-06-26T02:02:41;100378.13;;;16.64;78.89
21276;BME280;36472;52.170;20.884;2023-06-26T02:05:14;100376.44;;;16.63;79.15
21276;BME280;36472;52.170;20.884;2023-06-26T02:07:43;100377.31;;;16.64;79.27
21276;BME280;36472;52.170;20.884;2023-06-26T02:10:12;100370.03;;;16.56;79.44
21276;BME280;36472;52.170;20.884;2023-06-26T02:12:42;100372.13;;;16.53;79.31
21276;BME280;36472;52.170;20.884;2023-06-26T02:15:13;100363.63;;;16.49;79.72
21276;BME280;36472;52.170;20.884;2023-06-26T02:17:43;100365.56;;;16.47;80.07
21276;BME280;36472;52.170;20.884;2023-06-26T02:20:15;100362.78;;;16.49;80.60
21276;BME280;36472;52.170;20.884;2023-06-26T02:22:44;100361.66;;;16.51;80.57
21276;BME280;36472;52.170;20.884;2023-06-26T02:25:14;100363.47;;;16.51;80.71
21276;BME280;36472;52.170;20.884;2023-06-26T02:27:45;100363.75;;;16.48;80.91
21276;BME280;36472;52.170;20.884;2023-06-26T02:30:15;100357.47;;;16.39;80.79
21276;BME280;36472;52.170;20.884;2023-06-26T02:32:44;100357.19;;;16.32;81.19
21276;BME280;36472;52.170;20.884;2023-06-26T02:35:13;100351.31;;;16.29;81.01
21276;BME280;36472;52.170;20.884;2023-06-26T02:37:42;100350.75;;;16.25;81.33
21276;BME280;36472;52.170;20.884;2023-06-26T02:40:13;100352.59;;;16.24;81.48
21276;BME280;36472;52.170;20.884;2023-06-26T02:42:43;100356.91;;;16.25;81.45
21276;BME280;36472;52.170;20.884;2023-06-26T02:45:17;100353.41;;;16.25;81.41
21276;BME280;36472;52.170;20.884;2023-06-26T02:47:48;100363.63;;;16.30;81.69
21276;BME280;36472;52.170;20.884;2023-06-26T02:50:17;100367.09;;;16.30;80.96
21276;BME280;36472;52.170;20.884;2023-06-26T02:53:06;100358.72;;;16.25;81.24
21276;BME280;36472;52.170;20.884;2023-06-26T02:55:36;100365.00;;;16.24;81.35
21276;BME280;36472;52.170;20.884;2023-06-26T02:58:06;100368.34;;;16.26;81.24
21276;BME280;36472;52.170;20.884;2023-06-26T03:00:37;100362.47;;;16.22;81.50
21276;BME280;36472;52.170;20.884;2023-06-26T03:03:14;100365.69;;;16.26;81.58
21276;BME280;36472;52.170;20.884;2023-06-26T03:05:43;100365.28;;;16.31;81.97
21276;BME280;36472;52.170;20.884;2023-06-26T03:08:12;100360.94;;;16.39;81.82
21276;BME280;36472;52.170;20.884;2023-06-26T03:10:41;100363.75;;;16.38;81.75
21276;BME280;36472;52.170;20.884;2023-06-26T03:13:11;100359.16;;;16.40;81.82
21276;BME280;36472;52.170;20.884;2023-06-26T03:15:42;100364.16;;;16.43;81.89
21276;BME280;36472;52.170;20.884;2023-06-26T03:18:11;100363.06;;;16.45;81.71
21276;BME280;36472;52.170;20.884;2023-06-26T03:20:41;100360.13;;;16.49;81.77
21276;BME280;36472;52.170;20.884;2023-06-26T03:23:10;100359.56;;;16.55;81.84
21276;BME280;36472;52.170;20.884;2023-06-26T03:25:39;100369.06;;;16.57;81.78
21276;BME280;36472;52.170;20.884;2023-06-26T03:28:22;100369.63;;;16.61;81.83
21276;BME280;36472;52.170;20.884;2023-06-26T03:30:53;100362.63;;;16.60;81.64
21276;BME280;36472;52.170;20.884;2023-06-26T03:33:22;100365.28;;;16.60;81.52
21276;BME280;36472;52.170;20.884;2023-06-26T03:35:51;100377.72;;;16.69;80.97
21276;BME280;36472;52.170;20.884;2023-06-26T03:38:22;100368.91;;;16.78;81.05
21276;BME280;36472;52.170;20.884;2023-06-26T03:40:56;100373.69;;;16.85;81.32
21276;BME280;36472;52.170;20.884;2023-06-26T03:43:26;100371.00;;;16.94;80.81
21276;BME280;36472;52.170;20.884;2023-06-26T03:46:17;100366.28;;;16.98;80.89
21276;BME280;36472;52.170;20.884;2023-06-26T03:48:47;100373.94;;;17.01;80.83
21276;BME280;36472;52.170;20.884;2023-06-26T03:51:17;100372.53;;;17.07;80.30
21276;BME280;36472;52.170;20.884;2023-06-26T03:53:46;100381.59;;;17.14;80.13
21276;BME280;36472;52.170;20.884;2023-06-26T03:56:15;100374.47;;;17.24;79.72
21276;BME280;36472;52.170;20.884;2023-06-26T03:58:44;100374.88;;;17.29;79.71
21276;BME280;36472;52.170;20.884;2023-06-26T04:01:13;100377.09;;;17.34;80.20
21276;BME280;36472;52.170;20.884;2023-06-26T04:03:45;100373.41;;;17.45;79.56
21276;BME280;36472;52.170;20.884;2023-06-26T04:06:14;100370.47;;;17.48;79.50
21276;BME280;36472;52.170;20.884;2023-06-26T04:08:43;100379.38;;;17.56;79.41
21276;BME280;36472;52.170;20.884;2023-06-26T04:11:12;100374.31;;;17.63;79.31
21276;BME280;36472;52.170;20.884;2023-06-26T04:13:41;100370.09;;;17.70;78.82
21276;BME280;36472;52.170;20.884;2023-06-26T04:16:10;100374.25;;;17.73;78.46
21276;BME280;36472;52.170;20.884;2023-06-26T04:18:39;100372.41;;;17.83;78.12
21276;BME280;36472;52.170;20.884;2023-06-26T04:21:11;100368.06;;;17.92;77.70
21276;BME280;36472;52.170;20.884;2023-06-26T04:23:41;100365.66;;;17.99;77.27
21276;BME280;36472;52.170;20.884;2023-06-26T04:26:10;100362.09;;;18.08;77.07
21276;BME280;36472;52.170;20.884;2023-06-26T04:28:41;100369.00;;;18.19;76.69
21276;BME280;36472;52.170;20.884;2023-06-26T04:31:10;100361.63;;;18.30;76.05
21276;BME280;36472;52.170;20.884;2023-06-26T04:33:39;100360.91;;;18.38;75.25
21276;BME280;36472;52.170;20.884;2023-06-26T04:36:11;100361.66;;;18.48;75.03
21276;BME280;36472;52.170;20.884;2023-06-26T04:38:40;100367.75;;;18.59;74.78
21276;BME280;36472;52.170;20.884;2023-06-26T04:41:09;100370.47;;;18.67;74.86
21276;BME280;36472;52.170;20.884;2023-06-26T04:43:38;100363.69;;;18.73;74.40
21276;BME280;36472;52.170;20.884;2023-06-26T04:46:07;100371.44;;;18.84;74.10
21276;BME280;36472;52.170;20.884;2023-06-26T04:48:36;100368.84;;;18.92;73.94
21276;BME280;36472;52.170;20.884;2023-06-26T04:51:05;100366.63;;;19.05;73.66
21276;BME280;36472;52.170;20.884;2023-06-26T04:53:36;100369.88;;;19.17;73.62
21276;BME280;36472;52.170;20.884;2023-06-26T04:56:04;100368.75;;;19.28;71.98
21276;BME280;36472;52.170;20.884;2023-06-26T04:58:34;100374.44;;;19.33;70.70
21276;BME280;36472;52.170;20.884;2023-06-26T05:01:02;100361.84;;;19.43;70.71
21276;BME280;36472;52.170;20.884;2023-06-26T05:03:34;100368.03;;;19.52;69.99
21276;BME280;36472;52.170;20.884;2023-06-26T05:06:04;100366.78;;;19.65;69.96
21276;BME280;36472;52.170;20.884;2023-06-26T05:08:38;100367.72;;;19.82;70.40
21276;BME280;36472;52.170;20.884;2023-06-26T05:11:06;100371.25;;;19.90;70.03
21276;BME280;36472;52.170;20.884;2023-06-26T05:13:35;100371.09;;;20.00;68.75
21276;BME280;36472;52.170;20.884;2023-06-26T05:16:05;100371.78;;;20.10;68.29
21276;BME280;36472;52.170;20.884;2023-06-26T05:18:36;100378.50;;;20.31;67.04
21276;BME280;36472;52.170;20.884;2023-06-26T05:21:06;100366.53;;;20.43;66.37
21276;BME280;36472;52.170;20.884;2023-06-26T05:23:37;100369.19;;;20.60;65.08
21276;BME280;36472;52.170;20.884;2023-06-26T05:26:06;100374.09;;;20.81;65.22
21276;BME280;36472;52.170;20.884;2023-06-26T05:28:37;100371.06;;;20.92;63.37
21276;BME280;36472;52.170;20.884;2023-06-26T05:31:06;100366.03;;;21.05;63.09
21276;BME280;36472;52.170;20.884;2023-06-26T05:33:37;100359.31;;;21.26;62.57
21276;BME280;36472;52.170;20.884;2023-06-26T05:36:08;100365.81;;;21.48;62.10
21276;BME280;36472;52.170;20.884;2023-06-26T05:38:40;100363.44;;;21.61;61.61
21276;BME280;36472;52.170;20.884;2023-06-26T05:41:09;100358.09;;;21.93;61.17
21276;BME280;36472;52.170;20.884;2023-06-26T05:43:39;100362.06;;;22.36;60.10
21276;BME280;36472;52.170;20.884;2023-06-26T05:46:08;100359.59;;;22.73;59.74
21276;BME280;36472;52.170;20.884;2023-06-26T05:48:37;100356.63;;;23.06;58.24
21276;BME280;36472;52.170;20.884;2023-06-26T05:51:08;100352.13;;;23.36;56.63
21276;BME280;36472;52.170;20.884;2023-06-26T05:53:39;100353.84;;;23.59;54.22
21276;BME280;36472;52.170;20.884;2023-06-26T05:56:09;100355.91;;;23.57;53.60
21276;BME280;36472;52.170;20.884;2023-06-26T05:58:40;100355.34;;;23.76;53.27
21276;BME280;36472;52.170;20.884;2023-06-26T06:01:09;100350.88;;;23.98;54.24
21276;BME280;36472;52.170;20.884;2023-06-26T06:03:39;100349.44;;;24.17;51.25
21276;BME280;36472;52.170;20.884;2023-06-26T06:06:08;100356.84;;;24.37;51.47
21276;BME280;36472;52.170;20.884;2023-06-26T06:08:39;100355.66;;;24.61;51.22
21276;BME280;36472;52.170;20.884;2023-06-26T06:11:07;100354.16;;;24.80;50.14
21276;BME280;36472;52.170;20.884;2023-06-26T06:13:36;100354.50;;;24.98;49.95
21276;BME280;36472;52.170;20.884;2023-06-26T06:16:05;100353.50;;;24.99;48.78
21276;BME280;36472;52.170;20.884;2023-06-26T06:18:34;100359.72;;;25.07;47.56
21276;BME280;36472;52.170;20.884;2023-06-26T06:21:03;100350.97;;;25.26;48.11
21276;BME280;36472;52.170;20.884;2023-06-26T06:23:33;100356.44;;;25.39;47.03
21276;BME280;36472;52.170;20.884;2023-06-26T06:26:03;100355.69;;;25.52;47.61
21276;BME280;36472;52.170;20.884;2023-06-26T06:28:32;100350.81;;;25.69;46.22
21276;BME280;36472;52.170;20.884;2023-06-26T06:31:01;100347.13;;;25.84;45.91
21276;BME280;36472;52.170;20.884;2023-06-26T06:33:30;100354.41;;;25.90;45.78
21276;BME280;36472;52.170;20.884;2023-06-26T06:35:59;100352.44;;;26.19;45.64
21276;BME280;36472;52.170;20.884;2023-06-26T06:38:28;100355.78;;;26.27;45.67
21276;BME280;36472;52.170;20.884;2023-06-26T06:40:57;100352.88;;;26.29;46.40
21276;BME280;36472;52.170;20.884;2023-06-26T06:43:28;100344.81;;;26.29;46.12
21276;BME280;36472;52.170;20.884;2023-06-26T06:45:57;100343.56;;;26.38;46.30
21276;BME280;36472;52.170;20.884;2023-06-26T06:48:26;100333.19;;;26.35;46.18
21276;BME280;36472;52.170;20.884;2023-06-26T06:50:54;100345.66;;;26.49;45.70
21276;BME280;36472;52.170;20.884;2023-06-26T06:53:23;100340.69;;;26.53;44.62
21276;BME280;36472;52.170;20.884;2023-06-26T06:55:52;100344.44;;;26.65;43.74
21276;BME280;36472;52.170;20.884;2023-06-26T06:58:22;100339.44;;;26.62;43.65
21276;BME280;36472;52.170;20.884;2023-06-26T07:00:52;100342.34;;;26.74;43.25
21276;BME280;36472;52.170;20.884;2023-06-26T07:03:21;100342.75;;;26.91;42.77
21276;BME280;36472;52.170;20.884;2023-06-26T07:05:50;100342.75;;;26.98;42.85
21276;BME280;36472;52.170;20.884;2023-06-26T07:08:19;100340.84;;;27.18;42.54
21276;BME280;36472;52.170;20.884;2023-06-26T07:10:48;100336.06;;;27.27;41.75
21276;BME280;36472;52.170;20.884;2023-06-26T07:13:18;100340.19;;;27.36;42.03
21276;BME280;36472;52.170;20.884;2023-06-26T07:15:47;100344.13;;;27.47;42.26
21276;BME280;36472;52.170;20.884;2023-06-26T07:18:18;100338.50;;;27.55;40.42
21276;BME280;36472;52.170;20.884;2023-06-26T07:20:47;100342.00;;;27.56;40.48
21276;BME280;36472;52.170;20.884;2023-06-26T07:23:16;100334.94;;;27.61;40.06
21276;BME280;36472;52.170;20.884;2023-06-26T07:25:45;100322.59;;;27.79;39.55
21276;BME280;36472;52.170;20.884;2023-06-26T07:28:14;100332.97;;;27.82;39.82
21276;BME280;36472;52.170;20.884;2023-06-26T07:30:43;100334.59;;;27.96;39.88
21276;BME280;36472;52.170;20.884;2023-06-26T07:33:12;100325.00;;;28.01;39.05
21276;BME280;36472;52.170;20.884;2023-06-26T07:35:42;100329.50;;;28.13;38.68
21276;BME280;36472;52.170;20.884;2023-06-26T07:38:11;100335.56;;;28.09;39.41
21276;BME280;36472;52.170;20.884;2023-06-26T07:40:40;100334.19;;;27.93;38.68
21276;BME280;36472;52.170;20.884;2023-06-26T07:43:09;100336.25;;;27.91;38.69
21276;BME280;36472;52.170;20.884;2023-06-26T07:45:38;100335.69;;;27.75;39.15
21276;BME280;36472;52.170;20.884;2023-06-26T07:48:07;100324.69;;;27.77;39.53
21276;BME280;36472;52.170;20.884;2023-06-26T07:50:37;100331.13;;;27.83;40.13
21276;BME280;36472;52.170;20.884;2023-06-26T07:53:08;100323.03;;;27.76;39.54
21276;BME280;36472;52.170;20.884;2023-06-26T07:55:37;100332.59;;;27.72;40.10
21276;BME280;36472;52.170;20.884;2023-06-26T07:58:07;100334.44;;;27.78;40.31
21276;BME280;36472;52.170;20.884;2023-06-26T08:00:36;100323.81;;;27.83;39.01
21276;BME280;36472;52.170;20.884;2023-06-26T08:03:05;100332.53;;;27.92;39.48
21276;BME280;36472;52.170;20.884;2023-06-26T08:05:41;100335.63;;;27.89;39.43
21276;BME280;36472;52.170;20.884;2023-06-26T08:08:12;100325.06;;;27.80;39.81
21276;BME280;36472;52.170;20.884;2023-06-26T08:10:41;100326.53;;;27.83;40.17
21276;BME280;36472;52.170;20.884;2023-06-26T08:13:10;100324.03;;;27.82;38.73
21276;BME280;36472;52.170;20.884;2023-06-26T08:15:39;100326.81;;;27.61;37.25
21276;BME280;36472;52.170;20.884;2023-06-26T08:18:09;100318.06;;;27.73;37.01
21276;BME280;36472;52.170;20.884;2023-06-26T08:20:38;100322.59;;;27.79;38.66
21276;BME280;36472;52.170;20.884;2023-06-26T08:23:07;100326.31;;;27.85;38.85
21276;BME280;36472;52.170;20.884;2023-06-26T08:25:38;100320.69;;;27.86;39.62
21276;BME280;36472;52.170;20.884;2023-06-26T08:28:07;100320.47;;;27.94;37.52
21276;BME280;36472;52.170;20.884;2023-06-26T08:30:35;100319.59;;;28.01;38.36
21276;BME280;36472;52.170;20.884;2023-06-26T08:33:05;100314.91;;;27.83;38.05
21276;BME280;36472;52.170;20.884;2023-06-26T08:35:38;100313.84;;;27.84;38.20
21276;BME280;36472;52.170;20.884;2023-06-26T08:38:07;100315.94;;;27.82;38.12
21276;BME280;36472;52.170;20.884;2023-06-26T08:40:39;100321.06;;;27.45;38.45
21276;BME280;36472;52.170;20.884;2023-06-26T08:43:08;100316.75;;;27.43;38.81
21276;BME280;36472;52.170;20.884;2023-06-26T08:45:37;100312.78;;;27.46;39.39
21276;BME280;36472;52.170;20.884;2023-06-26T08:48:08;100319.41;;;27.50;38.01
21276;BME280;36472;52.170;20.884;2023-06-26T08:50:38;100308.28;;;27.72;37.79
21276;BME280;36472;52.170;20.884;2023-06-26T08:53:20;100314.19;;;28.01;37.83
21276;BME280;36472;52.170;20.884;2023-06-26T08:55:53;100307.31;;;28.05;35.72
21276;BME280;36472;52.170;20.884;2023-06-26T08:58:25;100305.75;;;28.22;34.45
21276;BME280;36472;52.170;20.884;2023-06-26T09:00:54;100299.03;;;28.31;33.54
21276;BME280;36472;52.170;20.884;2023-06-26T09:03:24;100305.28;;;28.25;33.14
21276;BME280;36472;52.170;20.884;2023-06-26T09:05:54;100299.97;;;28.19;34.28
21276;BME280;36472;52.170;20.884;2023-06-26T09:08:23;100293.78;;;28.36;35.24
21276;BME280;36472;52.170;20.884;2023-06-26T09:10:53;100301.28;;;28.34;35.58
21276;BME280;36472;52.170;20.884;2023-06-26T09:13:22;100302.22;;;28.47;35.04
21276;BME280;36472;52.170;20.884;2023-06-26T09:15:57;100291.84;;;28.44;34.50
21276;BME280;36472;52.170;20.884;2023-06-26T09:18:27;100284.38;;;28.46;35.62
21276;BME280;36472;52.170;20.884;2023-06-26T09:20:56;100293.16;;;28.66;34.48
21276;BME280;36472;52.170;20.884;2023-06-26T09:23:26;100291.00;;;28.75;33.71
21276;BME280;36472;52.170;20.884;2023-06-26T09:25:56;100291.59;;;28.77;34.25
21276;BME280;36472;52.170;20.884;2023-06-26T09:28:26;100281.38;;;28.79;34.33
21276;BME280;36472;52.170;20.884;2023-06-26T09:30:54;100289.28;;;28.99;34.68
21276;BME280;36472;52.170;20.884;2023-06-26T09:33:23;100283.88;;;28.99;34.02
21276;BME280;36472;52.170;20.884;2023-06-26T09:35:52;100285.66;;;28.68;34.33
21276;BME280;36472;52.170;20.884;2023-06-26T09:38:22;100285.94;;;28.60;34.75
21276;BME280;36472;52.170;20.884;2023-06-26T09:40:51;100277.22;;;28.58;34.26
21276;BME280;36472;52.170;20.884;2023-06-26T09:43:21;100288.06;;;28.77;34.43
21276;BME280;36472;52.170;20.884;2023-06-26T09:45:50;100283.66;;;28.82;33.95
21276;BME280;36472;52.170;20.884;2023-06-26T09:48:21;100284.78;;;28.93;34.21
21276;BME280;36472;52.170;20.884;2023-06-26T09:50:50;100283.97;;;29.11;35.01
21276;BME280;36472;52.170;20.884;2023-06-26T09:53:38;100288.63;;;29.22;34.88
21276;BME280;36472;52.170;20.884;2023-06-26T09:56:07;100291.09;;;29.05;33.71
21276;BME280;36472;52.170;20.884;2023-06-26T09:58:39;100287.97;;;28.65;34.93
21276;BME280;36472;52.170;20.884;2023-06-26T10:01:08;100280.59;;;28.47;34.97
21276;BME280;36472;52.170;20.884;2023-06-26T10:03:37;100279.28;;;28.31;35.50
21276;BME280;36472;52.170;20.884;2023-06-26T10:06:09;100279.78;;;28.46;35.68
21276;BME280;36472;52.170;20.884;2023-06-26T10:08:39;100281.38;;;28.79;34.54
21276;BME280;36472;52.170;20.884;2023-06-26T10:11:16;100270.44;;;28.92;34.38
21276;BME280;36472;52.170;20.884;2023-06-26T10:13:53;100281.22;;;28.74;34.36
21276;BME280;36472;52.170;20.884;2023-06-26T10:16:44;100266.78;;;28.62;34.83
21276;BME280;36472;52.170;20.884;2023-06-26T10:19:19;100274.16;;;28.48;35.58
21276;BME280;36472;52.170;20.884;2023-06-26T10:21:54;100269.69;;;28.35;36.75
21276;BME280;36472;52.170;20.884;2023-06-26T10:24:24;100261.91;;;28.45;35.31
21276;BME280;36472;52.170;20.884;2023-06-26T10:27:02;100258.41;;;28.70;34.50
21276;BME280;36472;52.170;20.884;2023-06-26T10:29:35;100256.06;;;28.73;34.16
21276;BME280;36472;52.170;20.884;2023-06-26T10:32:06;100255.38;;;28.60;34.47
21276;BME280;36472;52.170;20.884;2023-06-26T10:34:37;100251.16;;;28.64;35.37
21276;BME280;36472;52.170;20.884;2023-06-26T10:37:06;100248.84;;;28.67;36.57
21276;BME280;36472;52.170;20.884;2023-06-26T10:39:49;100250.72;;;28.67;34.19
21276;BME280;36472;52.170;20.884;2023-06-26T10:42:20;100245.75;;;28.64;34.49
21276;BME280;36472;52.170;20.884;2023-06-26T10:45:14;100246.13;;;28.42;35.22
21276;BME280;36472;52.170;20.884;2023-06-26T10:47:46;100246.22;;;28.35;34.39
21276;BME280;36472;52.170;20.884;2023-06-26T10:50:18;100232.34;;;28.76;34.57
21276;BME280;36472;52.170;20.884;2023-06-26T10:53:14;100230.47;;;29.32;33.53
21276;BME280;36472;52.170;20.884;2023-06-26T10:55:54;100234.44;;;29.29;33.80
21276;BME280;36472;52.170;20.884;2023-06-26T10:58:32;100236.63;;;29.69;33.87
21276;BME280;36472;52.170;20.884;2023-06-26T11:01:22;100229.69;;;30.15;31.52
21276;BME280;36472;52.170;20.884;2023-06-26T11:04:06;100230.03;;;30.78;30.63
21276;BME280;36472;52.170;20.884;2023-06-26T11:06:37;100236.28;;;31.14;30.86
21276;BME280;36472;52.170;20.884;2023-06-26T11:09:09;100237.25;;;30.96;30.41
21276;BME280;36472;52.170;20.884;2023-06-26T11:12:09;100234.03;;;30.28;31.09
21276;BME280;36472;52.170;20.884;2023-06-26T11:14:39;100224.09;;;29.87;32.05
21276;BME280;36472;52.170;20.884;2023-06-26T11:17:10;100225.84;;;29.51;32.41
21276;BME280;36472;52.170;20.884;2023-06-26T11:19:43;100227.13;;;29.78;33.66
21276;BME280;36472;52.170;20.884;2023-06-26T11:22:13;100220.81;;;29.84;32.48
21276;BME280;36472;52.170;20.884;2023-06-26T11:24:44;100211.16;;;29.89;31.59
21276;BME280;36472;52.170;20.884;2023-06-26T11:27:13;100216.69;;;29.94;31.79
21276;BME280;36472;52.170;20.884;2023-06-26T11:29:48;100217.31;;;29.65;31.41
21276;BME280;36472;52.170;20.884;2023-06-26T11:32:19;100223.28;;;29.56;31.83
21276;BME280;36472;52.170;20.884;2023-06-26T11:34:48;100210.69;;;29.61;32.22
21276;BME280;36472;52.170;20.884;2023-06-26T11:37:17;100212.56;;;29.61;32.37
21276;BME280;36472;52.170;20.884;2023-06-26T11:39:46;100212.13;;;29.64;32.65
21276;BME280;36472;52.170;20.884;2023-06-26T11:42:15;100206.13;;;29.62;32.56
21276;BME280;36472;52.170;20.884;2023-06-26T11:44:44;100213.00;;;29.46;33.08
21276;BME280;36472;52.170;20.884;2023-06-26T11:47:15;100205.88;;;29.15;32.11
21276;BME280;36472;52.170;20.884;2023-06-26T11:49:46;100205.28;;;29.13;33.98
21276;BME280;36472;52.170;20.884;2023-06-26T11:52:16;100209.19;;;28.98;32.85
21276;BME280;36472;52.170;20.884;2023-06-26T11:54:45;100208.22;;;28.74;32.35
21276;BME280;36472;52.170;20.884;2023-06-26T11:57:15;100200.84;;;28.63;32.56
21276;BME280;36472;52.170;20.884;2023-06-26T11:59:50;100197.91;;;28.64;33.83
21276;BME280;36472;52.170;20.884;2023-06-26T12:02:21;100196.38;;;28.75;32.91
21276;BME280;36472;52.170;20.884;2023-06-26T12:04:51;100194.09;;;28.72;31.21
21276;BME280;36472;52.170;20.884;2023-06-26T12:07:20;100190.34;;;28.73;32.64
21276;BME280;36472;52.170;20.884;2023-06-26T12:09:51;100188.19;;;28.63;32.48
21276;BME280;36472;52.170;20.884;2023-06-26T12:12:22;100177.44;;;28.75;32.52
21276;BME280;36472;52.170;20.884;2023-06-26T12:14:51;100179.22;;;28.81;31.28
21276;BME280;36472;52.170;20.884;2023-06-26T12:17:23;100162.63;;;28.96;32.10
21276;BME280;36472;52.170;20.884;2023-06-26T12:19:54;100161.03;;;29.07;31.73
21276;BME280;36472;52.170;20.884;2023-06-26T12:22:23;100162.47;;;29.09;31.58
21276;BME280;36472;52.170;20.884;2023-06-26T12:24:56;100169.22;;;29.19;31.46
21276;BME280;36472;52.170;20.884;2023-06-26T12:27:27;100167.59;;;29.18;31.27
21276;BME280;36472;52.170;20.884;2023-06-26T12:29:56;100169.34;;;29.24;30.90
21276;BME280;36472;52.170;20.884;2023-06-26T12:32:25;100164.41;;;29.21;30.67
21276;BME280;36472;52.170;20.884;2023-06-26T12:34:57;100156.81;;;29.30;31.00
21276;BME280;36472;52.170;20.884;2023-06-26T12:37:26;100165.88;;;29.35;31.68
21276;BME280;36472;52.170;20.884;2023-06-26T12:39:57;100155.09;;;29.47;31.26
21276;BME280;36472;52.170;20.884;2023-06-26T12:42:28;100156.88;;;29.53;31.18
21276;BME280;36472;52.170;20.884;2023-06-26T12:44:57;100159.06;;;29.44;31.22
21276;BME280;36472;52.170;20.884;2023-06-26T12:47:28;100147.53;;;29.37;30.54
21276;BME280;36472;52.170;20.884;2023-06-26T12:50:06;100140.59;;;29.41;30.85
21276;BME280;36472;52.170;20.884;2023-06-26T12:52:36;100135.06;;;29.48;29.85
21276;BME280;36472;52.170;20.884;2023-06-26T12:55:06;100140.84;;;29.52;31.49
21276;BME280;36472;52.170;20.884;2023-06-26T12:57:35;100134.53;;;29.58;31.00
21276;BME280;36472;52.170;20.884;2023-06-26T13:00:06;100131.47;;;29.66;30.23